createdAt,value
2022-08-10T00:01:56.932Z,22.15
2022-08-10T00:06:58.792Z,21.65
2022-08-10T00:12:00.753Z,21.50
2022-08-10T00:17:02.650Z,21.65
2022-08-10T00:22:04.673Z,21.61
2022-08-10T00:27:51.759Z,21.56
2022-08-10T00:32:28.959Z,21.67
2022-08-10T00:37:30.886Z,21.59
2022-08-10T00:42:32.879Z,21.55
2022-08-10T00:47:36.776Z,21.55
2022-08-10T00:52:40.267Z,21.47
2022-08-10T00:57:42.625Z,21.44
2022-08-10T01:02:44.914Z,21.36
2022-08-10T01:08:11.346Z,21.16
2022-08-10T01:13:30.947Z,21.07
2022-08-10T01:18:55.159Z,21.10
2022-08-10T01:24:26.110Z,21.04
2022-08-10T01:29:46.147Z,20.70
2022-08-10T01:35:12.078Z,20.64
2022-08-10T01:40:17.073Z,20.76
2022-08-10T01:45:24.426Z,20.80
2022-08-10T01:50:59.870Z,20.69
2022-08-10T01:56:03.118Z,20.65
2022-08-10T02:01:07.878Z,20.49
2022-08-10T02:06:15.190Z,20.55
2022-08-10T02:11:18.882Z,20.40
2022-08-10T02:16:21.994Z,20.20
2022-08-10T02:21:24.776Z,20.30
2022-08-10T02:26:27.188Z,20.28
2022-08-10T02:31:30.422Z,20.23
2022-08-10T02:36:35.987Z,20.26
2022-08-10T02:45:14.336Z,20.24
2022-08-10T02:47:50.951Z,20.28
2022-08-10T02:53:56.609Z,20.26
2022-08-10T02:58:40.672Z,20.02
2022-08-10T03:03:52.127Z,19.89
2022-08-10T03:08:55.952Z,19.90
2022-08-10T03:14:00.865Z,19.82
2022-08-10T03:19:05.389Z,19.80
2022-08-10T03:24:28.371Z,19.77
2022-08-10T03:30:23.227Z,19.74
2022-08-10T03:34:54.314Z,19.65
2022-08-10T03:39:56.336Z,19.63
2022-08-10T03:44:59.293Z,19.60
2022-08-10T03:50:05.507Z,19.55
2022-08-10T03:56:28.878Z,19.42
2022-08-10T04:00:51.246Z,19.41
2022-08-10T04:05:53.640Z,19.58
2022-08-10T04:10:55.727Z,19.54
2022-08-10T04:15:57.667Z,19.33
2022-08-10T04:21:07.099Z,19.45
2022-08-10T04:26:10.508Z,19.59
2022-08-10T04:31:17.346Z,19.74
2022-08-10T04:36:22.325Z,19.86
2022-08-10T04:41:24.594Z,20.02
2022-08-10T04:46:55.864Z,20.11
2022-08-10T04:51:48.770Z,20.21
2022-08-10T04:56:50.623Z,20.20
2022-08-10T05:02:28.726Z,20.28
2022-08-10T05:07:18.142Z,20.36
2022-08-10T05:12:20.581Z,20.39
2022-08-10T05:17:23.009Z,20.45
2022-08-10T05:22:24.884Z,20.57
2022-08-10T05:27:26.786Z,20.71
2022-08-10T05:32:28.763Z,20.86
2022-08-10T05:38:11.846Z,21.07
2022-08-10T05:42:53.680Z,21.23
2022-08-10T05:48:55.411Z,21.34
2022-08-10T05:53:59.538Z,21.56
2022-08-10T05:58:40.957Z,21.78
2022-08-10T06:03:48.556Z,22.00
2022-08-10T06:08:51.321Z,22.23
2022-08-10T06:14:16.139Z,22.49
2022-08-10T06:19:19.389Z,22.75
2022-08-10T06:24:25.540Z,22.99
2022-08-10T06:29:34.922Z,23.07
2022-08-10T06:34:41.153Z,23.15
2022-08-10T06:39:44.027Z,23.13
2022-08-10T06:45:00.637Z,23.18
2022-08-10T06:50:10.034Z,23.34
2022-08-10T06:55:16.763Z,23.64
2022-08-10T07:00:21.088Z,24.00
2022-08-10T07:05:28.811Z,24.43
2022-08-10T07:10:41.368Z,24.88
2022-08-10T07:15:59.332Z,25.32
2022-08-10T07:21:04.224Z,25.71
2022-08-10T07:26:08.739Z,26.08
2022-08-10T07:31:36.833Z,26.37
2022-08-10T07:36:36.790Z,26.61
2022-08-10T07:41:42.316Z,26.81
2022-08-10T07:46:47.237Z,26.96
2022-08-10T07:51:54.863Z,27.21
2022-08-10T07:57:01.897Z,27.45
2022-08-10T08:02:06.468Z,27.72
2022-08-10T08:07:08.790Z,27.88
2022-08-10T08:12:12.503Z,28.05
2022-08-10T08:17:16.897Z,27.98
2022-08-10T08:24:09.123Z,27.81
2022-08-10T08:27:47.676Z,27.92
2022-08-10T08:32:50.938Z,28.22
2022-08-10T08:38:32.719Z,28.42
2022-08-10T08:43:31.585Z,28.59
2022-08-10T08:48:46.865Z,28.69
2022-08-10T08:54:07.783Z,29.05
2022-08-10T08:59:40.493Z,29.24
2022-08-10T09:05:09.439Z,29.43
2022-08-10T09:10:48.341Z,29.66
2022-08-10T09:16:10.952Z,29.98
2022-08-10T09:21:24.186Z,30.08
2022-08-10T09:26:33.475Z,30.22
2022-08-10T09:32:55.032Z,30.32
2022-08-10T09:38:01.658Z,30.35
2022-08-10T09:43:26.129Z,30.41
2022-08-10T09:48:54.932Z,30.59
2022-08-10T09:54:07.761Z,30.69
2022-08-10T09:59:26.737Z,30.81
2022-08-10T10:05:10.612Z,31.00
2022-08-10T10:10:16.871Z,31.23
2022-08-10T10:15:34.990Z,31.49
2022-08-10T10:21:07.541Z,31.23
2022-08-10T10:26:24.529Z,31.28
2022-08-10T10:31:52.285Z,31.34
2022-08-10T10:36:55.974Z,31.51
2022-08-10T10:42:42.143Z,31.46
2022-08-10T10:47:50.496Z,31.39
2022-08-10T10:53:13.858Z,31.24
2022-08-10T10:58:28.298Z,31.07
2022-08-10T11:03:45.720Z,30.95
2022-08-10T11:08:53.996Z,30.92
2022-08-10T11:14:24.551Z,31.00
2022-08-10T11:20:02.782Z,31.08
2022-08-10T11:25:15.038Z,31.30
2022-08-10T11:30:26.053Z,31.66
2022-08-10T11:35:38.627Z,31.96
2022-08-10T11:41:14.602Z,32.13
2022-08-10T11:46:30.815Z,32.26
2022-08-10T11:51:44.058Z,32.45
2022-08-10T11:56:53.016Z,32.30
2022-08-10T12:01:57.274Z,32.23
2022-08-10T12:07:04.927Z,32.47
2022-08-10T12:12:30.712Z,32.71
2022-08-10T12:17:38.392Z,32.50
2022-08-10T12:22:56.905Z,32.62
2022-08-10T12:28:09.433Z,32.59
2022-08-10T12:33:21.293Z,32.46
2022-08-10T12:38:35.211Z,32.20
2022-08-10T12:44:04.924Z,32.07
2022-08-10T12:49:26.476Z,32.15
2022-08-10T12:54:32.139Z,32.16
2022-08-10T12:59:43.292Z,32.23
2022-08-10T13:04:49.566Z,32.27
2022-08-10T13:09:56.410Z,32.27
2022-08-10T13:15:43.133Z,32.33
2022-08-10T13:20:34.270Z,32.39
2022-08-10T13:25:39.015Z,32.48
2022-08-10T13:30:43.264Z,32.50
2022-08-10T13:35:58.566Z,32.50
2022-08-10T13:41:05.154Z,32.60
2022-08-10T13:46:07.502Z,32.69
2022-08-10T13:51:57.695Z,32.83
2022-08-10T13:56:52.485Z,32.97
2022-08-10T14:01:56.010Z,33.05
2022-08-10T14:07:00.673Z,33.04
2022-08-10T14:12:02.826Z,33.01
2022-08-10T14:17:07.642Z,33.01
2022-08-10T14:22:09.611Z,32.86
2022-08-10T14:27:14.187Z,32.56
2022-08-10T14:32:21.805Z,32.42
2022-08-10T14:37:33.214Z,32.54
2022-08-10T14:42:49.278Z,32.56
2022-08-10T14:48:08.553Z,32.55
2022-08-10T14:53:26.655Z,32.62
2022-08-10T14:58:59.091Z,32.77
2022-08-10T15:04:13.264Z,32.50
2022-08-10T15:09:20.146Z,32.17
2022-08-10T15:14:42.183Z,31.86
2022-08-10T15:20:02.187Z,31.66
2022-08-10T15:25:18.646Z,31.48
2022-08-10T15:30:30.036Z,31.33
2022-08-10T15:35:52.850Z,31.28
2022-08-10T15:40:56.947Z,31.21
2022-08-10T15:46:00.281Z,31.16
2022-08-10T15:51:06.456Z,31.08
2022-08-10T15:56:15.391Z,31.05
2022-08-10T16:02:12.857Z,31.06
2022-08-10T16:07:03.450Z,31.15
2022-08-10T16:12:13.104Z,31.13
2022-08-10T16:17:17.643Z,31.19
2022-08-10T16:22:35.853Z,31.24
2022-08-10T16:27:41.314Z,31.27
2022-08-10T16:32:46.644Z,31.32
2022-08-10T16:37:58.328Z,31.24
2022-08-10T16:43:04.112Z,31.14
2022-08-10T16:48:07.040Z,31.07
2022-08-10T16:53:14.304Z,30.90
2022-08-10T16:58:21.091Z,30.74
2022-08-10T17:04:06.172Z,30.60
2022-08-10T17:08:55.981Z,30.51
2022-08-10T17:14:04.237Z,30.47
2022-08-10T17:19:17.933Z,30.50
2022-08-10T17:24:25.561Z,30.46
2022-08-10T17:29:58.165Z,30.45
2022-08-10T17:35:00.115Z,30.42
2022-08-10T17:40:08.091Z,30.37
2022-08-10T17:45:47.749Z,30.32
2022-08-10T17:50:53.580Z,30.14
2022-08-10T17:55:58.226Z,30.00
2022-08-10T18:01:38.267Z,29.92
2022-08-10T18:06:28.380Z,29.85
2022-08-10T18:11:35.483Z,29.75
2022-08-10T18:16:41.702Z,29.65
2022-08-10T18:21:48.262Z,29.47
2022-08-10T18:26:52.691Z,29.30
2022-08-10T18:31:59.419Z,29.18
2022-08-10T18:37:06.125Z,29.08
2022-08-10T18:42:44.952Z,29.05
2022-08-10T18:47:59.106Z,28.92
2022-08-10T18:53:12.354Z,28.82
2022-08-10T18:58:51.829Z,28.71
2022-08-10T19:03:59.865Z,28.53
2022-08-10T19:09:45.616Z,28.39
2022-08-10T19:15:19.774Z,28.20
2022-08-10T19:20:33.045Z,27.92
2022-08-10T19:26:43.302Z,27.71
2022-08-10T19:31:43.990Z,27.59
2022-08-10T19:37:15.327Z,27.44
2022-08-10T19:42:31.313Z,27.32
2022-08-10T19:48:18.931Z,27.24
2022-08-10T19:53:29.578Z,27.08
2022-08-10T19:58:55.286Z,26.98
2022-08-10T20:04:05.865Z,26.94
2022-08-10T20:09:30.046Z,26.93
2022-08-10T20:14:53.052Z,26.88
2022-08-10T20:20:11.767Z,26.78
2022-08-10T20:25:34.059Z,26.69
2022-08-10T20:30:39.897Z,26.57
2022-08-10T20:35:58.602Z,26.56
2022-08-10T20:41:15.357Z,26.51
2022-08-10T20:46:17.190Z,26.35
2022-08-10T20:51:59.091Z,26.30
2022-08-10T20:57:55.847Z,26.21
2022-08-10T21:03:20.722Z,26.16
2022-08-10T21:09:08.499Z,26.12
2022-08-10T21:14:45.874Z,26.03
2022-08-10T21:20:14.239Z,25.86
2022-08-10T21:25:29.776Z,25.62
2022-08-10T21:31:04.440Z,25.47
2022-08-10T21:36:21.640Z,25.34
2022-08-10T21:41:56.999Z,25.26
2022-08-10T21:48:06.655Z,25.23
2022-08-10T21:53:44.060Z,25.12
2022-08-10T21:59:20.398Z,25.00
2022-08-10T22:04:45.500Z,24.92
2022-08-10T22:10:09.123Z,24.83
2022-08-10T22:15:42.592Z,24.78
2022-08-10T22:21:49.514Z,24.74
2022-08-10T22:27:46.572Z,24.60
2022-08-10T22:33:00.752Z,24.47
2022-08-10T22:38:32.517Z,24.35
2022-08-10T22:43:54.803Z,24.19
2022-08-10T22:49:00.663Z,24.07
2022-08-10T22:54:37.324Z,24.00
2022-08-10T22:59:39.389Z,23.87
2022-08-10T23:04:47.817Z,23.79
2022-08-10T23:10:11.929Z,23.69
2022-08-10T23:15:43.925Z,23.54
2022-08-10T23:20:48.448Z,23.35
2022-08-10T23:25:57.388Z,23.32
2022-08-10T23:31:00.937Z,23.32
2022-08-10T23:36:31.881Z,23.32
2022-08-10T23:41:28.521Z,23.32
2022-08-10T23:46:38.027Z,23.29
2022-08-10T23:51:56.357Z,23.23
2022-08-10T23:57:01.693Z,23.15
